aviador You're here:

KBHB Decoded Metar

BAR HARBOR in ME, USA
Report Time2018-01-18 13:15:00
UTC Time2018-01-18 14:00:15
Flight Rules vfr VFR
WindCalm
Visibility9999 m
Phenomena:N/A
Clouds:Few 003 Hf
Expected CloudBase > 400 ft AGL from Temp-Dew spread
CeilingNone
Temp-7°C (ISA -22)
Dew Point-8°C (93% RH)
AAT-9.9°C
QNH1014 hPa
Density Alt-2,615 ft
Elevation85 ft
Report Wrong Elevation
Raw Report
KBHB 181315Z AUTO 00000KT 9SM FEW003 M07/M08 A2993 RMK AO2 FZRANO
PNO $=

Extra information for KBHB:More info

Metar Taf Metar & Taf Last 4 Metars F.Rules Stats Wind Profile Meteogram Temp Stats Airport Information Weather charts Add Link Nearby VenuesMetar ALERT Operation Metar Decoded Social comments

AIRNAV info for KBHB